PAY1100 SETN-SBEG
Flight info
| Callsign | PAY1100 |
|---|---|
| Flight time | 3h 12m |
| Altitude | 33000 |
| Route | ESV2 ESV UL318 QIT UM776 IQT UM665 OREXO |
| Aircraft | B738/M-SBDE1E2E3FGHRWXY/LB1 |
Departure
| Time | 2026-05-07 19:48 |
|---|---|
| Airport | Carlos Concha Torres International Airport (SETN) |
Arrival
| Time | 2026-05-07 23:00 |
|---|---|
| Airport | Eduardo Gomes International Airport (SBEG) |
| Time | Latitude | Longitude | Altitude | Speed | Heading |
|---|---|---|---|---|---|
| 2026-05-07 19:06 | 0.97709 | -79.62515 | 47 ft | 0 kts | 92° |
| 2026-05-07 19:38 | 0.97710 | -79.62521 | 47 ft | 2 kts | 92° |
| 2026-05-07 19:39 | 0.97711 | -79.62536 | 47 ft | 2 kts | 112° |
| 2026-05-07 19:39 | 0.97719 | -79.62549 | 47 ft | 2 kts | 133° |
| 2026-05-07 19:39 | 0.97731 | -79.62558 | 47 ft | 2 kts | 156° |
| 2026-05-07 19:39 | 0.97746 | -79.62562 | 47 ft | 1 kts | 179° |
| 2026-05-07 19:40 | 0.97752 | -79.62562 | 47 ft | 1 kts | 186° |
| 2026-05-07 19:40 | 0.97755 | -79.62561 | 47 ft | 0 kts | 184° |
| 2026-05-07 19:43 | 0.97746 | -79.62562 | 47 ft | 5 kts | 183° |
| 2026-05-07 19:43 | 0.97658 | -79.62565 | 48 ft | 19 kts | 181° |
| 2026-05-07 19:44 | 0.97488 | -79.62573 | 50 ft | 25 kts | 183° |
| 2026-05-07 19:44 | 0.97320 | -79.62584 | 51 ft | 23 kts | 184° |
| 2026-05-07 19:44 | 0.97168 | -79.62588 | 53 ft | 20 kts | 181° |
| 2026-05-07 19:44 | 0.97030 | -79.62593 | 54 ft | 18 kts | 182° |
| 2026-05-07 19:45 | 0.96906 | -79.62598 | 55 ft | 16 kts | 182° |
| 2026-05-07 19:45 | 0.96798 | -79.62603 | 56 ft | 14 kts | 183° |
| 2026-05-07 19:45 | 0.96703 | -79.62609 | 57 ft | 12 kts | 191° |
| 2026-05-07 19:45 | 0.96646 | -79.62660 | 57 ft | 10 kts | 252° |
| 2026-05-07 19:46 | 0.96678 | -79.62711 | 57 ft | 9 kts | 347° |
| 2026-05-07 19:46 | 0.96706 | -79.62713 | 56 ft | 0 kts | 0° |
| 2026-05-07 19:47 | 0.96791 | -79.62710 | 56 ft | 39 kts | 2° |
| 2026-05-07 19:48 | 0.97286 | -79.62691 | 52 ft | 100 kts | 1° |
| 2026-05-07 19:48 | 0.98186 | -79.62651 | 43 ft | 151 kts | 3° |
| 2026-05-07 19:48 | 0.99353 | -79.62603 | 295 ft | 168 kts | 1° |
| 2026-05-07 19:48 | 1.00552 | -79.62503 | 644 ft | 184 kts | 5° |
| 2026-05-07 19:49 | 1.01795 | -79.62320 | 1350 ft | 177 kts | 9° |
| 2026-05-07 19:49 | 1.03086 | -79.62273 | 1622 ft | 193 kts | 351° |
| 2026-05-07 19:49 | 1.04463 | -79.62450 | 1906 ft | 204 kts | 355° |
| 2026-05-07 19:49 | 1.05933 | -79.62483 | 2162 ft | 217 kts | 359° |
| 2026-05-07 19:50 | 1.07469 | -79.62734 | 2362 ft | 231 kts | 335° |
| 2026-05-07 19:50 | 1.08741 | -79.63766 | 2627 ft | 244 kts | 305° |
| 2026-05-07 19:50 | 1.09463 | -79.65332 | 3018 ft | 252 kts | 285° |
| 2026-05-07 19:50 | 1.09634 | -79.67114 | 3259 ft | 267 kts | 262° |
| 2026-05-07 19:51 | 1.08934 | -79.68841 | 3701 ft | 274 kts | 231° |
| 2026-05-07 19:51 | 1.07426 | -79.70016 | 4158 ft | 278 kts | 203° |
| 2026-05-07 19:51 | 1.05531 | -79.70437 | 4654 ft | 280 kts | 179° |
| 2026-05-07 19:51 | 1.03657 | -79.70014 | 5120 ft | 281 kts | 149° |
| 2026-05-07 19:52 | 1.02154 | -79.68785 | 5683 ft | 278 kts | 130° |
| 2026-05-07 19:52 | 1.00886 | -79.67284 | 6205 ft | 280 kts | 127° |
| 2026-05-07 19:52 | 0.99660 | -79.65758 | 6751 ft | 282 kts | 127° |
| 2026-05-07 19:52 | 0.98399 | -79.64248 | 7321 ft | 283 kts | 129° |
| 2026-05-07 19:53 | 0.97093 | -79.62745 | 7871 ft | 285 kts | 129° |
| 2026-05-07 19:53 | 0.95781 | -79.61279 | 8424 ft | 287 kts | 130° |
| 2026-05-07 19:53 | 0.94426 | -79.59791 | 9006 ft | 289 kts | 131° |
| 2026-05-07 19:53 | 0.93055 | -79.58287 | 9591 ft | 291 kts | 130° |
| 2026-05-07 19:54 | 0.91686 | -79.56780 | 10175 ft | 293 kts | 131° |
| 2026-05-07 19:54 | 0.90282 | -79.55228 | 10424 ft | 308 kts | 130° |
| 2026-05-07 19:54 | 0.88804 | -79.53593 | 10712 ft | 322 kts | 130° |
| 2026-05-07 19:54 | 0.87257 | -79.51881 | 10955 ft | 336 kts | 131° |
| 2026-05-07 19:55 | 0.85659 | -79.50114 | 11258 ft | 348 kts | 131° |
| 2026-05-07 19:55 | 0.84027 | -79.48312 | 11756 ft | 353 kts | 131° |
| 2026-05-07 19:55 | 0.82375 | -79.46488 | 12355 ft | 355 kts | 131° |
| 2026-05-07 19:55 | 0.80690 | -79.44627 | 12958 ft | 357 kts | 131° |
| 2026-05-07 19:56 | 0.79015 | -79.42776 | 13585 ft | 359 kts | 131° |
| 2026-05-07 19:56 | 0.77323 | -79.40906 | 14177 ft | 362 kts | 131° |
| 2026-05-07 19:56 | 0.75641 | -79.39048 | 14744 ft | 365 kts | 130° |
| 2026-05-07 19:56 | 0.73925 | -79.37152 | 15400 ft | 367 kts | 130° |
| 2026-05-07 19:57 | 0.72186 | -79.35229 | 15947 ft | 371 kts | 130° |
| 2026-05-07 19:57 | 0.70460 | -79.33321 | 16559 ft | 373 kts | 130° |
| 2026-05-07 19:57 | 0.68688 | -79.31362 | 17152 ft | 375 kts | 130° |
| 2026-05-07 19:57 | 0.66939 | -79.29428 | 17714 ft | 378 kts | 130° |
| 2026-05-07 19:58 | 0.65172 | -79.27473 | 18265 ft | 381 kts | 130° |
| 2026-05-07 19:58 | 0.63370 | -79.25481 | 18782 ft | 385 kts | 130° |
| 2026-05-07 19:58 | 0.61555 | -79.23475 | 19335 ft | 388 kts | 130° |
| 2026-05-07 19:58 | 0.59757 | -79.21489 | 19924 ft | 389 kts | 130° |
| 2026-05-07 19:59 | 0.57939 | -79.19482 | 20451 ft | 391 kts | 130° |
| 2026-05-07 19:59 | 0.56088 | -79.17438 | 20900 ft | 395 kts | 130° |
| 2026-05-07 19:59 | 0.54234 | -79.15391 | 21433 ft | 397 kts | 130° |
| 2026-05-07 19:59 | 0.52355 | -79.13313 | 21880 ft | 401 kts | 130° |
| 2026-05-07 20:00 | 0.50488 | -79.11250 | 22377 ft | 403 kts | 130° |
| 2026-05-07 20:00 | 0.48586 | -79.09148 | 22784 ft | 407 kts | 130° |
| 2026-05-07 20:00 | 0.46681 | -79.07042 | 23290 ft | 408 kts | 130° |
| 2026-05-07 20:00 | 0.44766 | -79.04926 | 23677 ft | 412 kts | 130° |
| 2026-05-07 20:01 | 0.42843 | -79.02800 | 24181 ft | 413 kts | 130° |
| 2026-05-07 20:01 | 0.40901 | -79.00653 | 24573 ft | 417 kts | 130° |
| 2026-05-07 20:01 | 0.38931 | -78.98476 | 24982 ft | 419 kts | 130° |
| 2026-05-07 20:01 | 0.36950 | -78.96287 | 25361 ft | 422 kts | 131° |
| 2026-05-07 20:02 | 0.34968 | -78.94096 | 25745 ft | 425 kts | 131° |
| 2026-05-07 20:02 | 0.32983 | -78.91901 | 26089 ft | 428 kts | 131° |
| 2026-05-07 20:02 | 0.30965 | -78.89671 | 26516 ft | 429 kts | 131° |
| 2026-05-07 20:02 | 0.28977 | -78.87473 | 26857 ft | 432 kts | 131° |
| 2026-05-07 20:03 | 0.26951 | -78.85233 | 27241 ft | 433 kts | 131° |
| 2026-05-07 20:03 | 0.24910 | -78.82977 | 27573 ft | 436 kts | 131° |
| 2026-05-07 20:03 | 0.22864 | -78.80715 | 27898 ft | 439 kts | 131° |
| 2026-05-07 20:03 | 0.20809 | -78.78445 | 28214 ft | 441 kts | 131° |
| 2026-05-07 20:04 | 0.18745 | -78.76163 | 28581 ft | 442 kts | 131° |
| 2026-05-07 20:04 | 0.16651 | -78.73847 | 28877 ft | 445 kts | 131° |
| 2026-05-07 20:04 | 0.14561 | -78.71537 | 29263 ft | 446 kts | 131° |
| 2026-05-07 20:04 | 0.12487 | -78.69244 | 29780 ft | 442 kts | 131° |
| 2026-05-07 20:05 | 0.10419 | -78.66957 | 30266 ft | 440 kts | 132° |
| 2026-05-07 20:05 | 0.08345 | -78.64664 | 30597 ft | 441 kts | 132° |
| 2026-05-07 20:05 | 0.06255 | -78.62354 | 30917 ft | 442 kts | 132° |
| 2026-05-07 20:05 | 0.04184 | -78.60064 | 31251 ft | 442 kts | 132° |
| 2026-05-07 20:06 | 0.02104 | -78.57766 | 31623 ft | 441 kts | 132° |
| 2026-05-07 20:06 | 0.00030 | -78.55473 | 31988 ft | 440 kts | 132° |
| 2026-05-07 20:06 | -0.02031 | -78.53194 | 32312 ft | 440 kts | 133° |
| 2026-05-07 20:06 | -0.04085 | -78.50919 | 32619 ft | 440 kts | 132° |
| 2026-05-07 20:07 | -0.06067 | -78.48577 | 32908 ft | 441 kts | 129° |
| 2026-05-07 20:07 | -0.07961 | -78.46146 | 33186 ft | 441 kts | 128° |
| 2026-05-07 20:07 | -0.11635 | -78.41201 | 33230 ft | 442 kts | 127° |
| 2026-05-07 20:08 | -0.15305 | -78.36239 | 33242 ft | 440 kts | 127° |
| 2026-05-07 20:08 | -0.18999 | -78.31310 | 33259 ft | 441 kts | 128° |
| 2026-05-07 20:09 | -0.22715 | -78.26397 | 33281 ft | 441 kts | 128° |
| 2026-05-07 20:10 | -0.28318 | -78.19023 | 33287 ft | 441 kts | 128° |
| 2026-05-07 20:10 | -0.32049 | -78.14119 | 33279 ft | 441 kts | 128° |
| 2026-05-07 20:11 | -0.35783 | -78.09210 | 33270 ft | 440 kts | 128° |
| 2026-05-07 20:11 | -0.39522 | -78.04295 | 33261 ft | 441 kts | 128° |
| 2026-05-07 20:12 | -0.43252 | -77.99393 | 33252 ft | 441 kts | 128° |
| 2026-05-07 20:12 | -0.46967 | -77.94508 | 33246 ft | 440 kts | 128° |
| 2026-05-07 20:13 | -0.50702 | -77.89599 | 33244 ft | 441 kts | 128° |
| 2026-05-07 20:13 | -0.54441 | -77.84685 | 33221 ft | 440 kts | 128° |
| 2026-05-07 20:14 | -0.58162 | -77.79792 | 33190 ft | 441 kts | 128° |
| 2026-05-07 20:14 | -0.61895 | -77.74885 | 33151 ft | 441 kts | 128° |
| 2026-05-07 20:15 | -0.65629 | -77.69977 | 33101 ft | 440 kts | 128° |
| 2026-05-07 20:15 | -0.69330 | -77.65110 | 33054 ft | 440 kts | 128° |
| 2026-05-07 20:16 | -0.73077 | -77.60184 | 33011 ft | 440 kts | 128° |
| 2026-05-07 20:16 | -0.76806 | -77.55288 | 32980 ft | 441 kts | 128° |
| 2026-05-07 20:17 | -0.80517 | -77.50416 | 32962 ft | 441 kts | 128° |
| 2026-05-07 20:17 | -0.84262 | -77.45499 | 32948 ft | 441 kts | 128° |
| 2026-05-07 20:18 | -0.87992 | -77.40603 | 32936 ft | 441 kts | 128° |
| 2026-05-07 20:18 | -0.91728 | -77.35696 | 32928 ft | 440 kts | 128° |
| 2026-05-07 20:19 | -0.95437 | -77.30823 | 32921 ft | 441 kts | 128° |
| 2026-05-07 20:19 | -0.99172 | -77.25920 | 32917 ft | 441 kts | 128° |
| 2026-05-07 20:20 | -1.02906 | -77.21015 | 32915 ft | 440 kts | 128° |
| 2026-05-07 20:20 | -1.06631 | -77.16123 | 32912 ft | 441 kts | 128° |
| 2026-05-07 20:21 | -1.10375 | -77.11204 | 32910 ft | 440 kts | 128° |
| 2026-05-07 20:21 | -1.14081 | -77.06335 | 32909 ft | 441 kts | 128° |
| 2026-05-07 20:22 | -1.17832 | -77.01407 | 32908 ft | 441 kts | 128° |
| 2026-05-07 20:22 | -1.21571 | -76.96497 | 32907 ft | 440 kts | 128° |
| 2026-05-07 20:23 | -1.25340 | -76.91544 | 32906 ft | 441 kts | 128° |
| 2026-05-07 20:23 | -1.29085 | -76.86624 | 32905 ft | 441 kts | 128° |
| 2026-05-07 20:24 | -1.32835 | -76.81699 | 32904 ft | 441 kts | 128° |
| 2026-05-07 20:24 | -1.36574 | -76.76784 | 32903 ft | 440 kts | 128° |
| 2026-05-07 20:25 | -1.40288 | -76.71904 | 32902 ft | 441 kts | 128° |
| 2026-05-07 20:25 | -1.44020 | -76.67000 | 32901 ft | 441 kts | 128° |
| 2026-05-07 20:26 | -1.47778 | -76.62063 | 32900 ft | 442 kts | 128° |
| 2026-05-07 20:26 | -1.51507 | -76.57161 | 32899 ft | 440 kts | 128° |
| 2026-05-07 20:27 | -1.55249 | -76.52243 | 32898 ft | 441 kts | 128° |
| 2026-05-07 20:27 | -1.58969 | -76.47353 | 32897 ft | 441 kts | 128° |
| 2026-05-07 20:28 | -1.62739 | -76.42396 | 32896 ft | 441 kts | 128° |
| 2026-05-07 20:28 | -1.66482 | -76.37476 | 32895 ft | 441 kts | 128° |
| 2026-05-07 20:29 | -1.70192 | -76.32598 | 32894 ft | 440 kts | 128° |
| 2026-05-07 20:29 | -1.73923 | -76.27693 | 32894 ft | 440 kts | 128° |
| 2026-05-07 20:30 | -1.77664 | -76.22774 | 32893 ft | 440 kts | 128° |
| 2026-05-07 20:30 | -1.81391 | -76.17873 | 32892 ft | 441 kts | 128° |
| 2026-05-07 20:31 | -1.85118 | -76.12972 | 32891 ft | 440 kts | 128° |
| 2026-05-07 20:31 | -1.88876 | -76.08028 | 32891 ft | 440 kts | 128° |
| 2026-05-07 20:32 | -1.92624 | -76.03099 | 32891 ft | 440 kts | 128° |
| 2026-05-07 20:32 | -1.96342 | -75.98211 | 32890 ft | 440 kts | 128° |
| 2026-05-07 20:33 | -2.00083 | -75.93288 | 32890 ft | 441 kts | 128° |
| 2026-05-07 20:33 | -2.03696 | -75.88245 | 32890 ft | 440 kts | 125° |
| 2026-05-07 20:34 | -2.07173 | -75.83115 | 32889 ft | 441 kts | 124° |
| 2026-05-07 20:34 | -2.10645 | -75.77980 | 32889 ft | 440 kts | 125° |
| 2026-05-07 20:35 | -2.14110 | -75.72891 | 32888 ft | 441 kts | 125° |
| 2026-05-07 20:35 | -2.17603 | -75.67790 | 32888 ft | 441 kts | 125° |
| 2026-05-07 20:36 | -2.21096 | -75.62700 | 32888 ft | 441 kts | 125° |
| 2026-05-07 20:36 | -2.24555 | -75.57661 | 32888 ft | 440 kts | 125° |
| 2026-05-07 20:37 | -2.28069 | -75.52545 | 32887 ft | 441 kts | 125° |
| 2026-05-07 20:37 | -2.31548 | -75.47478 | 32887 ft | 440 kts | 125° |
| 2026-05-07 20:38 | -2.35033 | -75.42403 | 32887 ft | 440 kts | 125° |
| 2026-05-07 20:38 | -2.38498 | -75.37358 | 32887 ft | 441 kts | 125° |
| 2026-05-07 20:39 | -2.41986 | -75.32276 | 32887 ft | 440 kts | 125° |
| 2026-05-07 20:39 | -2.45471 | -75.27200 | 32886 ft | 440 kts | 125° |
| 2026-05-07 20:40 | -2.48953 | -75.22128 | 32887 ft | 441 kts | 125° |
| 2026-05-07 20:40 | -2.52447 | -75.17036 | 32886 ft | 440 kts | 125° |
| 2026-05-07 20:41 | -2.55912 | -75.11987 | 32885 ft | 440 kts | 125° |
| 2026-05-07 20:41 | -2.59423 | -75.06872 | 32885 ft | 441 kts | 125° |
| 2026-05-07 20:42 | -2.62915 | -75.01783 | 32885 ft | 440 kts | 125° |
| 2026-05-07 20:42 | -2.66389 | -74.96719 | 32885 ft | 440 kts | 125° |
| 2026-05-07 20:43 | -2.69877 | -74.91633 | 32885 ft | 441 kts | 125° |
| 2026-05-07 20:43 | -2.73349 | -74.86571 | 32884 ft | 440 kts | 125° |
| 2026-05-07 20:44 | -2.76843 | -74.81477 | 32884 ft | 440 kts | 125° |
| 2026-05-07 20:44 | -2.80315 | -74.76414 | 32884 ft | 441 kts | 125° |
| 2026-05-07 20:45 | -2.83812 | -74.71313 | 32884 ft | 440 kts | 125° |
| 2026-05-07 20:45 | -2.87296 | -74.66231 | 32883 ft | 441 kts | 125° |
| 2026-05-07 20:46 | -2.90784 | -74.61142 | 32883 ft | 440 kts | 125° |
| 2026-05-07 20:46 | -2.94266 | -74.56061 | 32883 ft | 440 kts | 125° |
| 2026-05-07 20:47 | -2.97741 | -74.50989 | 32882 ft | 440 kts | 125° |
| 2026-05-07 20:47 | -3.01224 | -74.45907 | 32882 ft | 441 kts | 125° |
| 2026-05-07 20:48 | -3.04705 | -74.40826 | 32882 ft | 440 kts | 125° |
| 2026-05-07 20:48 | -3.08193 | -74.35735 | 32882 ft | 441 kts | 125° |
| 2026-05-07 20:49 | -3.11661 | -74.30671 | 32882 ft | 440 kts | 125° |
| 2026-05-07 20:49 | -3.15134 | -74.25597 | 32882 ft | 440 kts | 125° |
| 2026-05-07 20:50 | -3.18610 | -74.20522 | 32882 ft | 440 kts | 125° |
| 2026-05-07 20:50 | -3.22079 | -74.15456 | 32881 ft | 440 kts | 125° |
| 2026-05-07 20:51 | -3.25568 | -74.10358 | 32882 ft | 441 kts | 125° |
| 2026-05-07 20:51 | -3.29070 | -74.05239 | 32882 ft | 440 kts | 125° |
| 2026-05-07 20:52 | -3.32549 | -74.00156 | 32881 ft | 440 kts | 125° |
| 2026-05-07 20:52 | -3.36018 | -73.95089 | 32881 ft | 441 kts | 125° |
| 2026-05-07 20:53 | -3.39509 | -73.89987 | 32880 ft | 441 kts | 125° |
| 2026-05-07 20:53 | -3.42993 | -73.84895 | 32879 ft | 441 kts | 125° |
| 2026-05-07 20:54 | -3.46477 | -73.79799 | 32878 ft | 440 kts | 125° |
| 2026-05-07 20:54 | -3.49956 | -73.74712 | 32878 ft | 441 kts | 125° |
| 2026-05-07 20:55 | -3.53428 | -73.69634 | 32877 ft | 440 kts | 125° |
| 2026-05-07 20:55 | -3.56921 | -73.64525 | 32877 ft | 440 kts | 125° |
| 2026-05-07 20:56 | -3.60382 | -73.59463 | 32877 ft | 440 kts | 125° |
| 2026-05-07 20:56 | -3.63846 | -73.54395 | 32876 ft | 440 kts | 125° |
| 2026-05-07 20:57 | -3.67319 | -73.49312 | 32876 ft | 439 kts | 125° |
| 2026-05-07 20:57 | -3.70807 | -73.44205 | 32876 ft | 440 kts | 125° |
| 2026-05-07 20:58 | -3.74302 | -73.39090 | 32876 ft | 440 kts | 125° |
| 2026-05-07 20:58 | -3.77655 | -73.33901 | 32875 ft | 440 kts | 118° |
| 2026-05-07 20:59 | -3.79679 | -73.28098 | 32878 ft | 443 kts | 102° |
| 2026-05-07 20:59 | -3.80618 | -73.21958 | 32876 ft | 444 kts | 98° |
| 2026-05-07 21:00 | -3.81313 | -73.15692 | 32875 ft | 444 kts | 97° |
| 2026-05-07 21:00 | -3.81985 | -73.09513 | 32875 ft | 444 kts | 97° |
| 2026-05-07 21:01 | -3.82686 | -73.03336 | 32875 ft | 444 kts | 98° |
| 2026-05-07 21:01 | -3.83409 | -72.97153 | 32875 ft | 444 kts | 98° |
| 2026-05-07 21:02 | -3.84142 | -72.90976 | 32875 ft | 444 kts | 98° |
| 2026-05-07 21:02 | -3.84875 | -72.84821 | 32875 ft | 444 kts | 98° |
| 2026-05-07 21:03 | -3.85610 | -72.78659 | 32875 ft | 444 kts | 98° |
| 2026-05-07 21:03 | -3.86349 | -72.72458 | 32875 ft | 444 kts | 98° |
| 2026-05-07 21:04 | -3.87079 | -72.66334 | 32875 ft | 444 kts | 98° |
| 2026-05-07 21:04 | -3.87817 | -72.60136 | 32875 ft | 444 kts | 98° |
| 2026-05-07 21:05 | -3.88552 | -72.53964 | 32875 ft | 444 kts | 98° |
| 2026-05-07 21:05 | -3.89286 | -72.47789 | 32875 ft | 444 kts | 98° |
| 2026-05-07 21:06 | -3.90015 | -72.41613 | 32875 ft | 444 kts | 98° |
| 2026-05-07 21:06 | -3.90740 | -72.35449 | 32875 ft | 444 kts | 98° |
| 2026-05-07 21:07 | -3.91464 | -72.29290 | 32875 ft | 444 kts | 98° |
| 2026-05-07 21:07 | -3.92191 | -72.23096 | 32875 ft | 444 kts | 98° |
| 2026-05-07 21:08 | -3.92916 | -72.16931 | 32875 ft | 444 kts | 98° |
| 2026-05-07 21:08 | -3.93639 | -72.10769 | 32875 ft | 444 kts | 98° |
| 2026-05-07 21:09 | -3.94362 | -72.04605 | 32875 ft | 444 kts | 98° |
| 2026-05-07 21:09 | -3.95088 | -71.98415 | 32875 ft | 444 kts | 98° |
| 2026-05-07 21:10 | -3.95816 | -71.92197 | 32875 ft | 444 kts | 98° |
| 2026-05-07 21:10 | -3.96538 | -71.86030 | 32875 ft | 444 kts | 98° |
| 2026-05-07 21:11 | -3.97263 | -71.79841 | 32874 ft | 444 kts | 98° |
| 2026-05-07 21:11 | -3.98344 | -71.70581 | 32874 ft | 444 kts | 98° |
| 2026-05-07 21:12 | -3.99066 | -71.64392 | 32875 ft | 444 kts | 98° |
| 2026-05-07 21:12 | -3.99785 | -71.58239 | 32875 ft | 444 kts | 98° |
| 2026-05-07 21:13 | -4.00508 | -71.52043 | 32875 ft | 444 kts | 98° |
| 2026-05-07 21:13 | -4.01225 | -71.45885 | 32875 ft | 444 kts | 98° |
| 2026-05-07 21:14 | -4.01947 | -71.39689 | 32875 ft | 444 kts | 98° |
| 2026-05-07 21:14 | -4.02663 | -71.33547 | 32875 ft | 444 kts | 97° |
| 2026-05-07 21:15 | -4.03382 | -71.27367 | 32875 ft | 444 kts | 98° |
| 2026-05-07 21:15 | -4.04098 | -71.21222 | 32874 ft | 444 kts | 98° |
| 2026-05-07 21:16 | -4.04814 | -71.15052 | 32874 ft | 444 kts | 98° |
| 2026-05-07 21:16 | -4.05529 | -71.08894 | 32874 ft | 444 kts | 98° |
| 2026-05-07 21:17 | -4.06244 | -71.02729 | 32874 ft | 444 kts | 98° |
| 2026-05-07 21:17 | -4.06959 | -70.96564 | 32874 ft | 444 kts | 97° |
| 2026-05-07 21:18 | -4.07675 | -70.90383 | 32874 ft | 444 kts | 98° |
| 2026-05-07 21:18 | -4.08390 | -70.84212 | 32873 ft | 444 kts | 97° |
| 2026-05-07 21:19 | -4.09101 | -70.78071 | 32873 ft | 444 kts | 98° |
| 2026-05-07 21:19 | -4.09813 | -70.71904 | 32873 ft | 444 kts | 97° |
| 2026-05-07 21:20 | -4.10523 | -70.65756 | 32873 ft | 444 kts | 98° |
| 2026-05-07 21:20 | -4.11237 | -70.59574 | 32873 ft | 444 kts | 98° |
| 2026-05-07 21:21 | -4.11951 | -70.53389 | 32873 ft | 444 kts | 97° |
| 2026-05-07 21:21 | -4.12663 | -70.47213 | 32873 ft | 444 kts | 98° |
| 2026-05-07 21:22 | -4.13375 | -70.41038 | 32873 ft | 443 kts | 98° |
| 2026-05-07 21:22 | -4.14086 | -70.34862 | 32873 ft | 443 kts | 98° |
| 2026-05-07 21:23 | -4.14796 | -70.28699 | 32873 ft | 444 kts | 98° |
| 2026-05-07 21:23 | -4.15510 | -70.22498 | 32873 ft | 444 kts | 97° |
| 2026-05-07 21:24 | -4.16217 | -70.16342 | 32872 ft | 443 kts | 97° |
| 2026-05-07 21:24 | -4.16928 | -70.10153 | 32872 ft | 443 kts | 97° |
| 2026-05-07 21:25 | -4.17635 | -70.03986 | 32872 ft | 443 kts | 97° |
| 2026-05-07 21:25 | -4.18332 | -69.97762 | 32872 ft | 444 kts | 96° |
| 2026-05-07 21:26 | -4.18445 | -69.91551 | 32873 ft | 445 kts | 87° |
| 2026-05-07 21:26 | -4.17767 | -69.85345 | 32872 ft | 446 kts | 83° |
| 2026-05-07 21:27 | -4.16867 | -69.79173 | 32872 ft | 446 kts | 83° |
| 2026-05-07 21:27 | -4.15958 | -69.72999 | 32872 ft | 446 kts | 83° |
| 2026-05-07 21:28 | -4.15079 | -69.66833 | 32872 ft | 446 kts | 83° |
| 2026-05-07 21:28 | -4.14216 | -69.60651 | 32872 ft | 446 kts | 83° |
| 2026-05-07 21:29 | -4.13314 | -69.54494 | 32872 ft | 446 kts | 82° |
| 2026-05-07 21:29 | -4.12329 | -69.48303 | 32872 ft | 446 kts | 82° |
| 2026-05-07 21:30 | -4.11370 | -69.42164 | 32871 ft | 446 kts | 82° |
| 2026-05-07 21:30 | -4.10427 | -69.35999 | 32871 ft | 446 kts | 82° |
| 2026-05-07 21:31 | -4.09486 | -69.29817 | 32871 ft | 446 kts | 83° |
| 2026-05-07 21:31 | -4.08552 | -69.23663 | 32871 ft | 446 kts | 83° |
| 2026-05-07 21:32 | -4.07615 | -69.17498 | 32871 ft | 446 kts | 82° |
| 2026-05-07 21:32 | -4.06676 | -69.11329 | 32871 ft | 446 kts | 82° |
| 2026-05-07 21:33 | -4.05736 | -69.05148 | 32871 ft | 446 kts | 82° |
| 2026-05-07 21:33 | -4.04800 | -68.99001 | 32871 ft | 446 kts | 82° |
| 2026-05-07 21:34 | -4.03861 | -68.92847 | 32871 ft | 446 kts | 83° |
| 2026-05-07 21:34 | -4.02924 | -68.86700 | 32872 ft | 446 kts | 83° |
| 2026-05-07 21:35 | -4.01978 | -68.80502 | 32872 ft | 446 kts | 82° |
| 2026-05-07 21:35 | -4.01041 | -68.74359 | 32873 ft | 446 kts | 82° |
| 2026-05-07 21:36 | -4.00099 | -68.68199 | 32873 ft | 446 kts | 82° |
| 2026-05-07 21:36 | -3.99160 | -68.62048 | 32873 ft | 446 kts | 83° |
| 2026-05-07 21:37 | -3.98217 | -68.55873 | 32873 ft | 446 kts | 82° |
| 2026-05-07 21:37 | -3.97271 | -68.49692 | 32873 ft | 446 kts | 83° |
| 2026-05-07 21:38 | -3.96330 | -68.43536 | 32873 ft | 446 kts | 82° |
| 2026-05-07 21:38 | -3.95393 | -68.37417 | 32873 ft | 446 kts | 83° |
| 2026-05-07 21:39 | -3.94448 | -68.31254 | 32872 ft | 446 kts | 82° |
| 2026-05-07 21:39 | -3.93501 | -68.25068 | 32872 ft | 446 kts | 82° |
| 2026-05-07 21:40 | -3.92564 | -68.18942 | 32872 ft | 446 kts | 82° |
| 2026-05-07 21:40 | -3.91616 | -68.12762 | 32872 ft | 446 kts | 82° |
| 2026-05-07 21:41 | -3.90671 | -68.06596 | 32872 ft | 446 kts | 82° |
| 2026-05-07 21:41 | -3.89727 | -68.00448 | 32872 ft | 446 kts | 82° |
| 2026-05-07 21:42 | -3.88779 | -67.94273 | 32872 ft | 446 kts | 83° |
| 2026-05-07 21:42 | -3.87827 | -67.88082 | 32872 ft | 446 kts | 82° |
| 2026-05-07 21:43 | -3.86883 | -67.81940 | 32871 ft | 446 kts | 83° |
| 2026-05-07 21:43 | -3.85930 | -67.75748 | 32871 ft | 446 kts | 82° |
| 2026-05-07 21:44 | -3.84980 | -67.69576 | 32871 ft | 446 kts | 82° |
| 2026-05-07 21:44 | -3.84032 | -67.63420 | 32871 ft | 446 kts | 82° |
| 2026-05-07 21:45 | -3.83083 | -67.57256 | 32871 ft | 446 kts | 82° |
| 2026-05-07 21:45 | -3.82138 | -67.51124 | 32871 ft | 446 kts | 83° |
| 2026-05-07 21:46 | -3.81189 | -67.44956 | 32871 ft | 446 kts | 82° |
| 2026-05-07 21:46 | -3.80239 | -67.38789 | 32872 ft | 446 kts | 82° |
| 2026-05-07 21:47 | -3.79289 | -67.32637 | 32873 ft | 446 kts | 82° |
| 2026-05-07 21:47 | -3.78340 | -67.26494 | 32874 ft | 446 kts | 82° |
| 2026-05-07 21:48 | -3.77385 | -67.20316 | 32875 ft | 446 kts | 82° |
| 2026-05-07 21:48 | -3.76437 | -67.14193 | 32875 ft | 445 kts | 82° |
| 2026-05-07 21:49 | -3.75485 | -67.08036 | 32875 ft | 445 kts | 82° |
| 2026-05-07 21:49 | -3.74527 | -67.01843 | 32875 ft | 445 kts | 82° |
| 2026-05-07 21:50 | -3.73575 | -66.95699 | 32875 ft | 445 kts | 82° |
| 2026-05-07 21:50 | -3.72622 | -66.89545 | 32875 ft | 446 kts | 82° |
| 2026-05-07 21:51 | -3.71671 | -66.83403 | 32874 ft | 445 kts | 82° |
| 2026-05-07 21:51 | -3.70713 | -66.77246 | 32875 ft | 445 kts | 82° |
| 2026-05-07 21:52 | -3.69753 | -66.71083 | 32874 ft | 445 kts | 82° |
| 2026-05-07 21:52 | -3.68794 | -66.64926 | 32874 ft | 445 kts | 82° |
| 2026-05-07 21:53 | -3.67839 | -66.58773 | 32873 ft | 445 kts | 82° |
| 2026-05-07 21:53 | -3.66880 | -66.52592 | 32872 ft | 445 kts | 82° |
| 2026-05-07 21:54 | -3.65919 | -66.46405 | 32872 ft | 445 kts | 82° |
| 2026-05-07 21:54 | -3.64962 | -66.40249 | 32871 ft | 445 kts | 82° |
| 2026-05-07 21:55 | -3.64046 | -66.34351 | 32870 ft | 445 kts | 82° |
| 2026-05-07 21:55 | -3.63069 | -66.28072 | 32869 ft | 445 kts | 82° |
| 2026-05-07 21:56 | -3.62107 | -66.21891 | 32869 ft | 445 kts | 82° |
| 2026-05-07 21:56 | -3.61151 | -66.15750 | 32869 ft | 445 kts | 82° |
| 2026-05-07 21:57 | -3.60199 | -66.09639 | 32868 ft | 445 kts | 82° |
| 2026-05-07 21:57 | -3.59244 | -66.03513 | 32868 ft | 445 kts | 82° |
| 2026-05-07 21:58 | -3.58283 | -65.97352 | 32868 ft | 445 kts | 82° |
| 2026-05-07 21:58 | -3.57315 | -65.91145 | 32867 ft | 445 kts | 82° |
| 2026-05-07 21:59 | -3.56352 | -65.84974 | 32868 ft | 445 kts | 82° |
| 2026-05-07 21:59 | -3.55384 | -65.78779 | 32867 ft | 445 kts | 82° |
| 2026-05-07 22:00 | -3.54429 | -65.72662 | 32867 ft | 445 kts | 82° |
| 2026-05-07 22:00 | -3.53466 | -65.66497 | 32867 ft | 445 kts | 82° |
| 2026-05-07 22:01 | -3.52498 | -65.60302 | 32867 ft | 445 kts | 82° |
| 2026-05-07 22:01 | -3.51537 | -65.54155 | 32867 ft | 446 kts | 82° |
| 2026-05-07 22:02 | -3.50576 | -65.48012 | 32867 ft | 445 kts | 82° |
| 2026-05-07 22:02 | -3.49606 | -65.41819 | 32867 ft | 445 kts | 82° |
| 2026-05-07 22:03 | -3.48641 | -65.35652 | 32867 ft | 446 kts | 82° |
| 2026-05-07 22:03 | -3.47685 | -65.29550 | 32867 ft | 445 kts | 82° |
| 2026-05-07 22:04 | -3.46717 | -65.23380 | 32867 ft | 445 kts | 82° |
| 2026-05-07 22:04 | -3.45750 | -65.17219 | 32867 ft | 446 kts | 82° |
| 2026-05-07 22:05 | -3.44780 | -65.11052 | 32866 ft | 445 kts | 82° |
| 2026-05-07 22:05 | -3.43811 | -65.04881 | 32866 ft | 446 kts | 82° |
| 2026-05-07 22:06 | -3.42849 | -64.98759 | 32866 ft | 445 kts | 82° |
| 2026-05-07 22:06 | -3.41880 | -64.92596 | 32866 ft | 446 kts | 82° |
| 2026-05-07 22:07 | -3.40914 | -64.86459 | 32866 ft | 445 kts | 82° |
| 2026-05-07 22:07 | -3.39944 | -64.80293 | 32866 ft | 446 kts | 82° |
| 2026-05-07 22:08 | -3.38979 | -64.74169 | 32865 ft | 445 kts | 82° |
| 2026-05-07 22:08 | -3.38207 | -64.68013 | 32866 ft | 445 kts | 86° |
| 2026-05-07 22:09 | -3.37798 | -64.61835 | 32865 ft | 445 kts | 88° |
| 2026-05-07 22:09 | -3.37437 | -64.55630 | 32865 ft | 445 kts | 88° |
| 2026-05-07 22:10 | -3.37050 | -64.49425 | 32865 ft | 445 kts | 87° |
| 2026-05-07 22:10 | -3.36637 | -64.43254 | 32865 ft | 444 kts | 87° |
| 2026-05-07 22:11 | -3.36207 | -64.37076 | 32865 ft | 444 kts | 87° |
| 2026-05-07 22:11 | -3.35769 | -64.30923 | 32865 ft | 444 kts | 87° |
| 2026-05-07 22:12 | -3.35326 | -64.24721 | 32865 ft | 444 kts | 87° |
| 2026-05-07 22:12 | -3.34881 | -64.18531 | 32865 ft | 444 kts | 87° |
| 2026-05-07 22:13 | -3.34435 | -64.12338 | 32865 ft | 444 kts | 87° |
| 2026-05-07 22:13 | -3.33991 | -64.06189 | 32865 ft | 444 kts | 87° |
| 2026-05-07 22:14 | -3.33543 | -63.99977 | 32865 ft | 444 kts | 87° |
| 2026-05-07 22:14 | -3.33097 | -63.93795 | 32865 ft | 444 kts | 87° |
| 2026-05-07 22:15 | -3.32652 | -63.87630 | 32865 ft | 444 kts | 87° |
| 2026-05-07 22:15 | -3.32203 | -63.81441 | 32865 ft | 444 kts | 87° |
| 2026-05-07 22:16 | -3.31756 | -63.75264 | 32865 ft | 444 kts | 87° |
| 2026-05-07 22:16 | -3.31307 | -63.69085 | 32864 ft | 444 kts | 87° |
| 2026-05-07 22:17 | -3.30853 | -63.62909 | 32865 ft | 444 kts | 87° |
| 2026-05-07 22:17 | -3.30399 | -63.56753 | 32864 ft | 444 kts | 87° |
| 2026-05-07 22:18 | -3.30171 | -63.53653 | 32640 ft | 441 kts | 87° |
| 2026-05-07 22:18 | -3.29724 | -63.47623 | 32114 ft | 427 kts | 87° |
| 2026-05-07 22:18 | -3.29506 | -63.44678 | 31856 ft | 425 kts | 87° |
| 2026-05-07 22:19 | -3.29286 | -63.41688 | 31594 ft | 425 kts | 87° |
| 2026-05-07 22:19 | -3.29070 | -63.38750 | 31336 ft | 424 kts | 87° |
| 2026-05-07 22:19 | -3.28853 | -63.35796 | 31073 ft | 421 kts | 87° |
| 2026-05-07 22:19 | -3.28636 | -63.32867 | 30810 ft | 417 kts | 87° |
| 2026-05-07 22:20 | -3.28425 | -63.30016 | 30554 ft | 415 kts | 87° |
| 2026-05-07 22:20 | -3.28212 | -63.27131 | 30294 ft | 412 kts | 87° |
| 2026-05-07 22:20 | -3.28000 | -63.24263 | 30033 ft | 411 kts | 86° |
| 2026-05-07 22:20 | -3.27790 | -63.21417 | 29774 ft | 409 kts | 86° |
| 2026-05-07 22:21 | -3.27579 | -63.18568 | 29513 ft | 406 kts | 87° |
| 2026-05-07 22:21 | -3.27371 | -63.15762 | 29255 ft | 404 kts | 86° |
| 2026-05-07 22:21 | -3.27165 | -63.12978 | 28997 ft | 402 kts | 86° |
| 2026-05-07 22:21 | -3.26957 | -63.10169 | 28737 ft | 400 kts | 86° |
| 2026-05-07 22:22 | -3.26751 | -63.07397 | 28479 ft | 398 kts | 86° |
| 2026-05-07 22:22 | -3.26548 | -63.04646 | 28220 ft | 396 kts | 86° |
| 2026-05-07 22:22 | -3.26344 | -63.01904 | 27963 ft | 394 kts | 86° |
| 2026-05-07 22:22 | -3.26140 | -62.99153 | 27704 ft | 392 kts | 86° |
| 2026-05-07 22:23 | -3.25937 | -62.96412 | 27443 ft | 391 kts | 86° |
| 2026-05-07 22:23 | -3.25737 | -62.93721 | 27188 ft | 388 kts | 86° |
| 2026-05-07 22:23 | -3.25538 | -62.91040 | 26931 ft | 387 kts | 86° |
| 2026-05-07 22:23 | -3.25337 | -62.88331 | 26672 ft | 386 kts | 86° |
| 2026-05-07 22:24 | -3.25140 | -62.85681 | 26418 ft | 384 kts | 86° |
| 2026-05-07 22:24 | -3.24941 | -62.83006 | 26159 ft | 381 kts | 86° |
| 2026-05-07 22:24 | -3.24744 | -62.80365 | 25901 ft | 379 kts | 86° |
| 2026-05-07 22:24 | -3.24550 | -62.77758 | 25646 ft | 377 kts | 86° |
| 2026-05-07 22:25 | -3.24354 | -62.75118 | 25390 ft | 376 kts | 86° |
| 2026-05-07 22:25 | -3.24160 | -62.72510 | 25132 ft | 374 kts | 86° |
| 2026-05-07 22:25 | -3.23965 | -62.69893 | 24874 ft | 372 kts | 86° |
| 2026-05-07 22:25 | -3.23775 | -62.67341 | 24621 ft | 370 kts | 86° |
| 2026-05-07 22:26 | -3.23582 | -62.64753 | 24349 ft | 368 kts | 86° |
| 2026-05-07 22:26 | -3.23394 | -62.62225 | 24086 ft | 367 kts | 86° |
| 2026-05-07 22:26 | -3.23203 | -62.59666 | 23818 ft | 365 kts | 86° |
| 2026-05-07 22:26 | -3.23016 | -62.57154 | 23553 ft | 363 kts | 86° |
| 2026-05-07 22:27 | -3.22827 | -62.54618 | 23286 ft | 361 kts | 86° |
| 2026-05-07 22:27 | -3.22641 | -62.52119 | 23023 ft | 360 kts | 86° |
| 2026-05-07 22:27 | -3.22454 | -62.49625 | 22758 ft | 357 kts | 86° |
| 2026-05-07 22:27 | -3.22270 | -62.47149 | 22493 ft | 356 kts | 86° |
| 2026-05-07 22:28 | -3.22086 | -62.44688 | 22234 ft | 355 kts | 86° |
| 2026-05-07 22:28 | -3.21902 | -62.42233 | 21973 ft | 353 kts | 86° |
| 2026-05-07 22:28 | -3.21719 | -62.39782 | 21712 ft | 352 kts | 86° |
| 2026-05-07 22:28 | -3.21535 | -62.37331 | 21451 ft | 351 kts | 86° |
| 2026-05-07 22:29 | -3.21352 | -62.34884 | 21190 ft | 349 kts | 86° |
| 2026-05-07 22:29 | -3.21172 | -62.32487 | 20934 ft | 348 kts | 86° |
| 2026-05-07 22:29 | -3.20989 | -62.30049 | 20672 ft | 346 kts | 86° |
| 2026-05-07 22:29 | -3.20815 | -62.27667 | 20417 ft | 346 kts | 86° |
| 2026-05-07 22:30 | -3.20653 | -62.25265 | 20159 ft | 345 kts | 86° |
| 2026-05-07 22:30 | -3.20499 | -62.22858 | 19899 ft | 343 kts | 86° |
| 2026-05-07 22:30 | -3.20348 | -62.20470 | 19642 ft | 341 kts | 86° |
| 2026-05-07 22:30 | -3.20198 | -62.18111 | 19387 ft | 340 kts | 86° |
| 2026-05-07 22:31 | -3.20046 | -62.15749 | 19131 ft | 336 kts | 86° |
| 2026-05-07 22:31 | -3.19898 | -62.13456 | 18871 ft | 329 kts | 86° |
| 2026-05-07 22:31 | -3.19729 | -62.11159 | 18868 ft | 334 kts | 85° |
| 2026-05-07 22:31 | -3.19537 | -62.08823 | 18860 ft | 338 kts | 85° |
| 2026-05-07 22:32 | -3.19337 | -62.06465 | 18861 ft | 338 kts | 85° |
| 2026-05-07 22:32 | -3.19138 | -62.04123 | 18863 ft | 336 kts | 85° |
| 2026-05-07 22:32 | -3.18938 | -62.01751 | 18863 ft | 338 kts | 85° |
| 2026-05-07 22:32 | -3.18746 | -61.99435 | 18862 ft | 337 kts | 85° |
| 2026-05-07 22:33 | -3.18552 | -61.97086 | 18863 ft | 337 kts | 85° |
| 2026-05-07 22:33 | -3.18358 | -61.94727 | 18863 ft | 337 kts | 85° |
| 2026-05-07 22:33 | -3.18166 | -61.92401 | 18862 ft | 337 kts | 85° |
| 2026-05-07 22:33 | -3.17972 | -61.90050 | 18863 ft | 338 kts | 85° |
| 2026-05-07 22:34 | -3.17778 | -61.87693 | 18862 ft | 338 kts | 85° |
| 2026-05-07 22:34 | -3.17585 | -61.85340 | 18862 ft | 336 kts | 85° |
| 2026-05-07 22:34 | -3.17392 | -61.83004 | 18864 ft | 337 kts | 85° |
| 2026-05-07 22:34 | -3.17199 | -61.80659 | 18862 ft | 338 kts | 85° |
| 2026-05-07 22:35 | -3.17007 | -61.78322 | 18862 ft | 336 kts | 85° |
| 2026-05-07 22:35 | -3.16813 | -61.75967 | 18863 ft | 337 kts | 85° |
| 2026-05-07 22:35 | -3.16619 | -61.73618 | 18863 ft | 338 kts | 85° |
| 2026-05-07 22:35 | -3.16426 | -61.71277 | 18863 ft | 338 kts | 85° |
| 2026-05-07 22:36 | -3.16232 | -61.68921 | 18862 ft | 337 kts | 85° |
| 2026-05-07 22:36 | -3.16040 | -61.66600 | 18863 ft | 338 kts | 85° |
| 2026-05-07 22:36 | -3.15847 | -61.64255 | 18863 ft | 336 kts | 85° |
| 2026-05-07 22:36 | -3.15654 | -61.61918 | 18863 ft | 337 kts | 85° |
| 2026-05-07 22:37 | -3.15458 | -61.59548 | 18863 ft | 337 kts | 85° |
| 2026-05-07 22:37 | -3.15265 | -61.57217 | 18863 ft | 337 kts | 85° |
| 2026-05-07 22:37 | -3.15071 | -61.54871 | 18863 ft | 336 kts | 85° |
| 2026-05-07 22:37 | -3.14877 | -61.52523 | 18863 ft | 337 kts | 85° |
| 2026-05-07 22:38 | -3.14687 | -61.50221 | 18859 ft | 330 kts | 85° |
| 2026-05-07 22:38 | -3.14503 | -61.47993 | 18861 ft | 314 kts | 85° |
| 2026-05-07 22:38 | -3.14326 | -61.45861 | 18861 ft | 298 kts | 85° |
| 2026-05-07 22:38 | -3.14160 | -61.43848 | 18861 ft | 282 kts | 85° |
| 2026-05-07 22:39 | -3.14003 | -61.41946 | 18860 ft | 268 kts | 85° |
| 2026-05-07 22:39 | -3.13849 | -61.40084 | 18866 ft | 264 kts | 85° |
| 2026-05-07 22:39 | -3.13696 | -61.38238 | 18865 ft | 267 kts | 85° |
| 2026-05-07 22:39 | -3.13542 | -61.36371 | 18863 ft | 269 kts | 85° |
| 2026-05-07 22:40 | -3.13387 | -61.34508 | 18862 ft | 268 kts | 85° |
| 2026-05-07 22:40 | -3.13234 | -61.32656 | 18863 ft | 267 kts | 85° |
| 2026-05-07 22:40 | -3.13078 | -61.30769 | 18863 ft | 267 kts | 85° |
| 2026-05-07 22:40 | -3.12923 | -61.28905 | 18864 ft | 268 kts | 85° |
| 2026-05-07 22:41 | -3.12768 | -61.27040 | 18863 ft | 268 kts | 85° |
| 2026-05-07 22:41 | -3.12614 | -61.25181 | 18862 ft | 267 kts | 85° |
| 2026-05-07 22:41 | -3.12460 | -61.23320 | 18863 ft | 267 kts | 85° |
| 2026-05-07 22:41 | -3.12308 | -61.21482 | 18862 ft | 267 kts | 85° |
| 2026-05-07 22:42 | -3.12153 | -61.19613 | 18861 ft | 267 kts | 85° |
| 2026-05-07 22:42 | -3.11999 | -61.17754 | 18864 ft | 269 kts | 85° |
| 2026-05-07 22:42 | -3.11844 | -61.15897 | 18862 ft | 268 kts | 85° |
| 2026-05-07 22:42 | -3.11690 | -61.14040 | 18862 ft | 267 kts | 85° |
| 2026-05-07 22:43 | -3.11535 | -61.12173 | 18863 ft | 268 kts | 85° |
| 2026-05-07 22:43 | -3.11382 | -61.10328 | 18835 ft | 268 kts | 85° |
| 2026-05-07 22:43 | -3.11225 | -61.08443 | 18602 ft | 271 kts | 85° |
| 2026-05-07 22:43 | -3.11070 | -61.06571 | 18240 ft | 270 kts | 85° |
| 2026-05-07 22:44 | -3.10913 | -61.04693 | 17880 ft | 268 kts | 85° |
| 2026-05-07 22:44 | -3.10758 | -61.02834 | 17525 ft | 267 kts | 85° |
| 2026-05-07 22:44 | -3.10603 | -61.00983 | 17169 ft | 265 kts | 85° |
| 2026-05-07 22:44 | -3.10451 | -60.99149 | 16814 ft | 264 kts | 85° |
| 2026-05-07 22:45 | -3.10299 | -60.97335 | 16467 ft | 262 kts | 85° |
| 2026-05-07 22:45 | -3.10146 | -60.95506 | 16115 ft | 261 kts | 85° |
| 2026-05-07 22:45 | -3.09994 | -60.93687 | 15763 ft | 260 kts | 85° |
| 2026-05-07 22:45 | -3.09842 | -60.91871 | 15408 ft | 259 kts | 85° |
| 2026-05-07 22:46 | -3.09692 | -60.90076 | 15063 ft | 258 kts | 85° |
| 2026-05-07 22:46 | -3.09543 | -60.88289 | 14721 ft | 258 kts | 86° |
| 2026-05-07 22:46 | -3.09401 | -60.86480 | 14366 ft | 257 kts | 86° |
| 2026-05-07 22:46 | -3.09270 | -60.84697 | 14023 ft | 256 kts | 86° |
| 2026-05-07 22:47 | -3.09142 | -60.82910 | 13676 ft | 255 kts | 86° |
| 2026-05-07 22:47 | -3.09014 | -60.81152 | 13333 ft | 255 kts | 86° |
| 2026-05-07 22:47 | -3.08883 | -60.79362 | 12988 ft | 254 kts | 86° |
| 2026-05-07 22:47 | -3.08758 | -60.77611 | 12646 ft | 254 kts | 86° |
| 2026-05-07 22:48 | -3.08636 | -60.75844 | 12301 ft | 253 kts | 86° |
| 2026-05-07 22:48 | -3.08516 | -60.74077 | 11961 ft | 253 kts | 86° |
| 2026-05-07 22:48 | -3.08394 | -60.72301 | 11612 ft | 252 kts | 86° |
| 2026-05-07 22:48 | -3.08273 | -60.70541 | 11268 ft | 252 kts | 86° |
| 2026-05-07 22:49 | -3.08153 | -60.68801 | 10929 ft | 252 kts | 86° |
| 2026-05-07 22:49 | -3.08032 | -60.67046 | 10567 ft | 249 kts | 86° |
| 2026-05-07 22:49 | -3.07915 | -60.65340 | 10272 ft | 245 kts | 86° |
| 2026-05-07 22:49 | -3.07798 | -60.63644 | 10082 ft | 240 kts | 85° |
| 2026-05-07 22:50 | -3.07685 | -60.62000 | 10020 ft | 233 kts | 85° |
| 2026-05-07 22:50 | -3.07572 | -60.60368 | 9854 ft | 234 kts | 85° |
| 2026-05-07 22:50 | -3.07461 | -60.58752 | 9535 ft | 236 kts | 85° |
| 2026-05-07 22:50 | -3.07348 | -60.57115 | 9226 ft | 235 kts | 85° |
| 2026-05-07 22:51 | -3.07235 | -60.55480 | 8921 ft | 235 kts | 85° |
| 2026-05-07 22:51 | -3.07122 | -60.53841 | 8622 ft | 234 kts | 85° |
| 2026-05-07 22:51 | -3.07009 | -60.52207 | 8319 ft | 233 kts | 85° |
| 2026-05-07 22:51 | -3.06898 | -60.50605 | 8024 ft | 233 kts | 85° |
| 2026-05-07 22:52 | -3.06785 | -60.48985 | 7711 ft | 232 kts | 85° |
| 2026-05-07 22:52 | -3.06675 | -60.47380 | 7426 ft | 225 kts | 85° |
| 2026-05-07 22:52 | -3.06569 | -60.45833 | 7164 ft | 219 kts | 85° |
| 2026-05-07 22:52 | -3.06465 | -60.44324 | 6865 ft | 218 kts | 85° |
| 2026-05-07 22:53 | -3.06360 | -60.42816 | 6588 ft | 216 kts | 84° |
| 2026-05-07 22:53 | -3.06256 | -60.41311 | 6310 ft | 215 kts | 84° |
| 2026-05-07 22:53 | -3.06133 | -60.39838 | 6038 ft | 213 kts | 80° |
| 2026-05-07 22:53 | -3.05820 | -60.38394 | 5768 ft | 211 kts | 73° |
| 2026-05-07 22:54 | -3.05402 | -60.36976 | 5497 ft | 211 kts | 72° |
| 2026-05-07 22:54 | -3.04992 | -60.35581 | 5306 ft | 208 kts | 73° |
| 2026-05-07 22:54 | -3.04600 | -60.34178 | 5211 ft | 209 kts | 73° |
| 2026-05-07 22:54 | -3.04213 | -60.32767 | 5072 ft | 207 kts | 73° |
| 2026-05-07 22:55 | -3.03852 | -60.31395 | 4922 ft | 197 kts | 77° |
| 2026-05-07 22:55 | -3.03712 | -60.30032 | 4611 ft | 205 kts | 88° |
| 2026-05-07 22:55 | -3.03748 | -60.28567 | 4257 ft | 210 kts | 90° |
| 2026-05-07 22:55 | -3.03787 | -60.27114 | 3992 ft | 207 kts | 89° |
| 2026-05-07 22:56 | -3.03801 | -60.25696 | 3806 ft | 200 kts | 89° |
| 2026-05-07 22:56 | -3.03803 | -60.24319 | 3651 ft | 191 kts | 88° |
| 2026-05-07 22:56 | -3.03810 | -60.23011 | 3430 ft | 188 kts | 90° |
| 2026-05-07 22:56 | -3.03830 | -60.21690 | 3167 ft | 188 kts | 89° |
| 2026-05-07 22:57 | -3.03839 | -60.20401 | 2924 ft | 183 kts | 89° |
| 2026-05-07 22:57 | -3.03837 | -60.19154 | 2731 ft | 173 kts | 88° |
| 2026-05-07 22:57 | -3.03839 | -60.17950 | 2503 ft | 169 kts | 89° |
| 2026-05-07 22:57 | -3.03844 | -60.16790 | 2226 ft | 164 kts | 89° |
| 2026-05-07 22:58 | -3.03845 | -60.15662 | 2034 ft | 160 kts | 88° |
| 2026-05-07 22:58 | -3.03846 | -60.14531 | 1825 ft | 161 kts | 88° |
| 2026-05-07 22:58 | -3.03849 | -60.13406 | 1615 ft | 161 kts | 89° |
| 2026-05-07 22:58 | -3.03852 | -60.12289 | 1418 ft | 161 kts | 89° |
| 2026-05-07 22:59 | -3.03852 | -60.11170 | 1200 ft | 159 kts | 88° |
| 2026-05-07 22:59 | -3.03855 | -60.10046 | 991 ft | 159 kts | 88° |
| 2026-05-07 22:59 | -3.03856 | -60.08922 | 795 ft | 160 kts | 89° |
| 2026-05-07 22:59 | -3.03857 | -60.07802 | 583 ft | 160 kts | 90° |
| 2026-05-07 23:00 | -3.03862 | -60.06702 | 377 ft | 155 kts | 89° |
| 2026-05-07 23:00 | -3.03859 | -60.05606 | 253 ft | 159 kts | 88° |
| 2026-05-07 23:00 | -3.03858 | -60.04636 | 239 ft | 98 kts | 90° |
| 2026-05-07 23:00 | -3.03864 | -60.04243 | 239 ft | 16 kts | 90° |
| 2026-05-07 23:01 | -3.03864 | -60.04108 | 239 ft | 23 kts | 89° |
| 2026-05-07 23:01 | -3.03862 | -60.03947 | 239 ft | 22 kts | 89° |
| 2026-05-07 23:01 | -3.03837 | -60.03799 | 239 ft | 19 kts | 49° |
| 2026-05-07 23:01 | -3.03724 | -60.03796 | 239 ft | 17 kts | 320° |
| 2026-05-07 23:02 | -3.03666 | -60.03913 | 239 ft | 21 kts | 287° |
| 2026-05-07 23:02 | -3.03622 | -60.04067 | 238 ft | 23 kts | 286° |
| 2026-05-07 23:02 | -3.03573 | -60.04223 | 238 ft | 22 kts | 296° |
| 2026-05-07 23:02 | -3.03473 | -60.04339 | 238 ft | 21 kts | 327° |
| 2026-05-07 23:03 | -3.03364 | -60.04386 | 238 ft | 12 kts | 333° |
| 2026-05-07 23:03 | -3.03342 | -60.04455 | 238 ft | 6 kts | 257° |
| 2026-05-07 23:03 | -3.03327 | -60.04487 | 238 ft | 5 kts | 338° |
| 2026-05-07 23:03 | -3.03293 | -60.04496 | 238 ft | 2 kts | 349° |
| 2026-05-07 23:04 | -3.03277 | -60.04499 | 238 ft | 1 kts | 349° |
| 2026-05-07 23:04 | -3.03270 | -60.04500 | 238 ft | 0 kts | 349° |